Data for 09/04/2005

Time Sea-Level Adjusted Pressure Absolute Pressure Temperature Relative Humidity Dew Point   
(mb) (inHg) (mb) (inHg) (C) (F) (%) (C) (F)
00:05 1016 30 846 24.98 21.9 71.4 21 -1.5 29.4
00:10 1016 30 846 24.98 21.6 70.9 22 -0.9 30.5
00:15 1017 30.03 846 24.98 21 69.7 24 0 32
00:20 1017 30.03 846 24.98 20.5 68.8 21 -2.5 27.5
00:25 1017 30.03 846 24.98 21.1 69.9 22 -1.5 29.4
00:30 1017 30.03 846 24.98 21 69.9 21 -1.9 28.5
00:35 1017 30.03 846 24.98 21.3 70.3 21 -2.1 28.3
00:40 1017 30.03 846 24.98 21.1 70 21 -1.9 28.7
00:45 1017 30.03 846 24.98 21.1 69.9 22 -1.1 30
00:50 1017 30.03 846 24.98 20.7 69.3 25 -0 31.9
00:55 1017 30.03 847 25.01 20.3 68.5 25 -0.3 31.4
01:00 1017 30.03 847 25.01 19.8 67.7 27 0.5 32.9
01:05 1018 30.06 847 25.01 19.3 66.8 29 0.9 33.5
01:10 1018 30.06 847 25.01 18.6 65.4 31 1.5 34.6
01:15 1018 30.06 847 25.01 17.9 64.2 33 1.7 35.1
01:20 1018 30.06 847 25.01 17.4 63.4 35 1.9 35.5
01:25 1018 30.06 847 25.01 17 62.7 37 2.2 36
01:30 1018 30.06 847 25.01 17 62.6 36 2.1 35.7
01:35 1018 30.06 847 25.01 17.6 63.6 34 1.6 34.8
01:40 1018 30.06 847 25.01 17.9 64.2 34 1.9 35.4
01:45 1018 30.06 847 25.01 17.9 64.1 34 1.8 35.2
01:50 1018 30.06 847 25.01 17.9 64.3 34 1.9 35.5
01:55 1018 30.06 847 25.01 17.9 64.2 34 1.9 35.5
02:00 1018 30.06 847 25.01 18 64.4 34 2.1 35.7
02:05 1018 30.06 847 25.01 18 64.4 34 2.1 35.8
02:10 1018 30.06 847 25.01 17.7 63.8 35 2.2 36
02:15 1018 30.06 847 25.01 17.3 63.2 37 2.6 36.7
02:20 1018 30.06 847 25.01 16.5 61.7 41 3.2 37.8
02:25 1018 30.06 847 25.01 16.1 60.9 39 2.4 36.3
02:30 1018 30.06 847 25.01 16.6 61.8 38 2.4 36.3
02:35 1018 30.06 847 25.01 16.6 61.9 39 2.6 36.6
02:40 1018 30.06 847 25.01 16.4 61.6 39 2.6 36.6
02:45 1018 30.06 847 25.01 16.5 61.6 37 2 35.6
02:50 1018 30.06 847 25.01 17 62.6 35 1.7 35
02:55 1018 30.06 847 25.01 17.1 62.7 37 2.5 36.5
03:00 1018 30.06 847 25.01 16.5 61.7 41 3.4 38.1
03:05 1018 30.06 847 25.01 16.1 61 41 2.9 37.2
03:10 1018 30.06 847 25.01 15.6 60.1 46 4.3 39.7
03:15 1018 30.06 847 25.01 15.5 59.8 43 2.9 37.2
03:20 1018 30.06 847 25.01 15.1 59.1 43 2.7 36.8
03:25 1018 30.06 847 25.01 15.1 59.1 44 2.9 37.2
03:30 1018 30.06 847 25.01 14.8 58.6 45 3.1 37.5
03:35 1018 30.06 847 25.01 14.4 57.9 44 2.3 36.1
03:40 1018 30.06 847 25.01 15 59 41 2.1 35.7
03:45 1018 30.06 847 25.01 15.4 59.8 43 3.1 37.6
03:50 1018 30.06 847 25.01 15.6 60.1 41 2.6 36.7
03:55 1018 30.06 847 25.01 14.9 58.9 44 2.7 36.9
04:00 1018 30.06 847 25.01 14.6 58.3 43 2.3 36.1
04:05 1018 30.06 847 25.01 14.6 58.2 43 2.3 36.2
04:10 1018 30.06 847 25.01 14.5 58 44 2.5 36.4
04:15 1018 30.06 847 25.01 14.5 58.1 44 2.6 36.6
04:20 1018 30.06 847 25.01 14.2 57.6 45 2.5 36.4
04:25 1018 30.06 847 25.01 14.2 57.6 44 2.2 35.9
04:30 1018 30.06 847 25.01 14.2 57.5 44 2.2 36
04:35 1018 30.06 847 25.01 14.2 57.5 43 2 35.6
04:40 1018 30.06 847 25.01 14.3 57.8 44 2.3 36.1
04:45 1018 30.06 847 25.01 14.1 57.3 45 2.3 36.2
04:50 1018 30.06 847 25.01 14.1 57.3 46 2.8 37
04:55 1018 30.06 847 25.01 14.2 57.5 44 2.2 35.9
05:00 1018 30.06 847 25.01 14.1 57.3 44 2.2 36
05:05 1018 30.06 847 25.01 14 57.2 44 2.2 35.9
05:10 1018 30.06 847 25.01 14 57.3 44 2.1 35.8
05:15 1018 30.06 847 25.01 14.1 57.5 44 2.2 35.9
05:20 1018 30.06 847 25.01 14 57.1 47 2.8 37.1
05:25 1018 30.06 847 25.01 13.8 56.8 47 2.6 36.7
05:30 1018 30.06 847 25.01 14 57.1 44 2.1 35.9
05:35 1018 30.06 847 25.01 14.1 57.4 49 3.6 38.5
05:40 1018 30.06 847 25.01 13.3 55.9 51 3.3 38
05:45 1018 30.06 847 25.01 12.6 54.8 51 2.9 37.3
05:50 1018 30.06 847 25.01 12.5 54.4 53 3.3 37.9
05:55 1018 30.06 848 25.04 12 53.7 53 2.9 37.2
06:00 1018 30.06 848 25.04 12 53.7 58 4 39.2
06:05 1018 30.06 848 25.04 12.1 53.7 53 2.8 37
06:10 1018 30.06 848 25.04 12.2 53.9 63 5.4 41.7
06:15 1018 30.06 848 25.04 12.1 53.8 54 3 37.4
06:20 1018 30.06 848 25.04 11.7 53.1 54 2.8 37
06:25 1018 30.06 848 25.04 11.7 53 54 2.6 36.7
06:30 1018 30.06 848 25.04 11.7 53 54 2.6 36.7
06:35 1018 30.06 848 25.04 11.8 53.2 56 3.3 37.9
06:40 1018 30.06 848 25.04 12.1 53.8 52 2.6 36.6
06:45 1018 30.06 848 25.04 11.8 53.3 58 3.8 38.8
06:50 1018 30.06 848 25.04 11.8 53.3 54 2.8 37.1
06:55 1019 30.09 848 25.04 11.1 51.9 58 3.2 37.8
07:00 1019 30.09 848 25.04 10.6 51 59 2.9 37.2
07:05 1019 30.09 848 25.04 10.8 51.4 55 2.1 35.8
07:10 1019 30.09 848 25.04 11.5 52.7 52 2.1 35.8
07:15 1019 30.09 848 25.04 11.9 53.5 52 2.4 36.3
07:20 1019 30.09 848 25.04 11.6 52.8 54 2.6 36.7
07:25 1019 30.09 848 25.04 11.5 52.7 53 2.3 36.1
07:30 1019 30.09 848 25.04 11.8 53.3 52 2.2 36
07:35 1019 30.09 848 25.04 11.9 53.4 53 2.8 37
07:40 1019 30.09 848 25.04 11.8 53.2 53 2.5 36.5
07:45 1019 30.09 848 25.04 12 53.5 51 2.3 36.2
07:50 1019 30.09 848 25.04 12.6 54.6 54 3.5 38.2
07:55 1019 30.09 848 25.04 12.9 55.2 50 2.8 37
08:00 1019 30.09 848 25.04 13 55.3 51 3.2 37.7
08:05 1019 30.09 848 25.04 13 55.3 50 2.8 37
08:10 1019 30.09 848 25.04 13 55.3 49 2.7 36.8
08:15 1019 30.09 848 25.04 13.4 56 48 2.5 36.5
08:20 1019 30.09 848 25.04 14 57.1 46 2.7 36.8
08:25 1019 30.09 848 25.04 14.5 58 42 1.9 35.5
08:30 1019 30.09 848 25.04 14.8 58.7 43 2.4 36.3
08:35 1019 30.09 848 25.04 15.1 59.3 43 2.7 36.8
08:40 1019 30.09 848 25.04 15.3 59.5 42 2.5 36.6
08:45 1019 30.09 848 25.04 15.5 60 41 2.5 36.6
08:50 1019 30.09 848 25.04 15.7 60.2 46 4.2 39.6
08:55 1019 30.09 848 25.04 16 60.8 42 3 37.5
09:00 1019 30.09 848 25.04 16.4 61.5 42 3.7 38.7
09:05 1019 30.09 848 25.04 16.6 61.8 42 3.6 38.6
09:10 1019 30.09 848 25.04 17 62.6 40 3.5 38.4
09:15 1019 30.09 848 25.04 17.3 63.2 42 4.6 40.2
09:20 1019 30.09 848 25.04 18.5 65.3 36 3.2 37.8
09:25 1019 30.09 848 25.04 19.2 66.5 36 4 39.3
09:30 1019 30.09 848 25.04 19.5 67.1 35 3.9 39
09:35 1019 30.09 848 25.04 19.7 67.5 34 3.5 38.4
09:40 1019 30.09 848 25.04 20.2 68.3 31 2.9 37.2
09:45 1019 30.09 848 25.04 20 68 32 3.2 37.7
09:50 1019 30.09 848 25.04 20 67.9 33 3.2 37.8
09:55 1019 30.09 848 25.04 20.3 68.5 31 3 37.3
10:00 1019 30.09 848 25.04 20.8 69.5 29 2.5 36.5
10:05 1019 30.09 848 25.04 20.8 69.4 29 2.3 36.2
10:10 1019 30.09 848 25.04 20.4 68.7 31 2.8 37
10:15 1019 30.09 848 25.04 20.5 68.9 30 2.7 36.9
10:20 1019 30.09 848 25.04 20.8 69.4 31 3.2 37.7
10:25 1019 30.09 848 25.04 21.3 70.3 31 3.9 38.9
10:30 1019 30.09 848 25.04 21.8 71.2 31 4 39.3
10:35 1019 30.09 848 25.04 22.1 71.9 29 3.5 38.3
10:40 1018 30.06 848 25.04 22.1 71.8 29 3.3 37.9
10:45 1018 30.06 848 25.04 21.9 71.4 29 3.3 38
10:50 1018 30.06 848 25.04 22.2 71.9 28 2.9 37.3
10:55 1018 30.06 848 25.04 22.3 72.2 28 3 37.3
11:00 1018 30.06 848 25.04 22.4 72.3 29 3.5 38.3
11:05 1018 30.06 848 25.04 23 73.4 27 3.2 37.8
11:10 1018 30.06 848 25.04 22.7 72.8 28 3.2 37.8
11:15 1018 30.06 848 25.04 22.6 72.6 27 3 37.4
11:20 1018 30.06 847 25.01 22.5 72.5 28 3.1 37.5
11:25 1018 30.06 847 25.01 22.5 72.6 27 2.8 37
11:30 1018 30.06 847 25.01 23.1 73.5 27 3.5 38.2
11:35 1018 30.06 847 25.01 23.4 74.1 26 3.2 37.8
11:40 1018 30.06 847 25.01 23.3 74 25 2.7 36.8
11:45 1018 30.06 847 25.01 23.6 74.5 26 3.4 38.1
11:50 1018 30.06 847 25.01 23.9 75 26 3.4 38.2
11:55 1018 30.06 847 25.01 23.6 74.5 26 3.4 38.1
12:00 1018 30.06 847 25.01 22.9 73.1 27 3.1 37.6
12:05 1018 30.06 847 25.01 23.4 74.2 25 2.7 36.8
12:10 1018 30.06 847 25.01 24.4 76 26 3.8 38.8
12:15 1018 30.06 847 25.01 24.9 76.8 25 3.9 38.9
12:20 1017 30.03 847 25.01 24.1 75.3 26 3.5 38.3
12:25 1017 30.03 847 25.01 25.1 77.2 24 3.3 38
12:30 1017 30.03 847 25.01 24.6 76.2 27 4.8 40.6
12:35 1017 30.03 846 24.98 24.1 75.4 27 4.1 39.3
12:40 1017 30.03 846 24.98 23.8 74.8 28 4.4 39.9
12:45 1017 30.03 846 24.98 23.5 74.4 27 3.8 38.8
12:50 1017 30.03 846 24.98 23.5 74.3 27 3.8 38.8
12:55 1017 30.03 846 24.98 23.4 74.1 28 4.1 39.4
13:00 1017 30.03 846 24.98 23.3 74 28 4.1 39.4
13:05 1017 30.03 846 24.98 23.2 73.8 28 3.9 39
13:10 1017 30.03 846 24.98 23.1 73.6 28 3.7 38.7
13:15 1017 30.03 846 24.98 23.2 73.8 29 4.4 39.9
13:20 1017 30.03 846 24.98 23.1 73.5 32 5.8 42.4
13:25 1017 30.03 846 24.98 22.9 73.3 32 5.4 41.7
13:30 1017 30.03 846 24.98 23.9 74.9 28 4.6 40.4
13:35 1017 30.03 846 24.98 23.8 74.8 29 4.9 40.7
13:40 1017 30.03 846 24.98 24.2 75.6 28 4.9 40.8
13:45 1017 30.03 846 24.98 24.7 76.4 27 4.8 40.6
13:50 1017 30.03 846 24.98 23.9 74.9 29 5.2 41.3
13:55 1017 30.03 846 24.98 23.2 73.7 30 4.7 40.5
14:00 1016 30 846 24.98 22.9 73.3 32 5.6 42.1
14:05 1016 30 845 24.95 23.1 73.6 29 4.5 40.1
14:10 1016 30 845 24.95 23.7 74.6 29 4.6 40.2
14:15 1016 30 845 24.95 23.8 74.8 29 4.9 40.9
14:20 1016 30 845 24.95 23.7 74.6 30 5.2 41.4
14:25 1016 30 845 24.95 23.4 74.2 31 5.7 42.2
14:30 1016 30 845 24.95 23.1 73.6 32 5.9 42.6
14:35 1016 30 845 24.95 22.7 72.8 38 7.7 45.9
14:40 1016 30 845 24.95 22.7 72.8 43 9.5 49
14:45 1016 30 845 24.95 23 73.3 48 11.6 52.8
14:50 1016 30 845 24.95 23.4 74.1 34 6.9 44.4
14:55 1015 29.97 845 24.95 23.8 74.9 49 12.8 55
15:00 1015 29.97 845 24.95 23.6 74.4 42 10.1 50.2
15:05 1015 29.97 844 24.92 24 75.2 39 9.4 49
15:10 1015 29.97 845 24.95 23.5 74.3 39 9.1 48.4
15:15 1015 29.97 845 24.95 23.4 74 42 9.8 49.7
15:20 1015 29.97 844 24.92 23.4 74.2 42 10 50
15:25 1015 29.97 844 24.92 22.9 73.2 43 9.8 49.6
15:30 1015 29.97 844 24.92 22.9 73.2 44 10.3 50.6
15:35 1015 29.97 845 24.95 22.8 73.1 42 9.4 48.9
15:40 1015 29.97 844 24.92 22.5 72.4 44 9.7 49.5
15:45 1015 29.97 844 24.92 22 71.5 44 9.3 48.8
15:50 1015 29.97 844 24.92 21.9 71.4 44 9.3 48.7
15:55 1015 29.97 844 24.92 22.1 71.7 38 7.4 45.4
16:00 1015 29.97 844 24.92 22.7 72.8 41 8.9 48.1
16:05 1015 29.97 844 24.92 22.8 73.1 39 8.4 47
16:10 1015 29.97 844 24.92 22.5 72.6 34 6.2 43.2
16:15 1015 29.97 845 24.95 22.3 72.2 35 6.5 43.7
16:20 1016 30 845 24.95 22.2 71.9 31 4.5 40.1
16:25 1016 30 846 24.98 21.9 71.4 30 3.7 38.6
16:30 1017 30.03 846 24.98 21.4 70.4 31 3.5 38.3
16:35 1017 30.03 846 24.98 20.7 69.3 31 3 37.5
16:40 1017 30.03 846 24.98 20.5 68.9 32 3.5 38.4
16:45 1017 30.03 846 24.98 20.1 68.1 33 3.6 38.5
16:50 1017 30.03 846 24.98 19.9 67.8 35 4.1 39.3
16:55 1017 30.03 846 24.98 19.3 66.8 40 5.6 42
17:00 1018 30.06 847 25.01 18.9 66.1 40 5 41
17:05 1017 30.03 847 25.01 18.9 66 40 5.2 41.3
17:10 1017 30.03 847 25.01 19 66.2 39 5 40.9
17:15 1017 30.03 847 25.01 19.1 66.3 39 4.8 40.7
17:20 1017 30.03 847 25.01 19.1 66.3 40 5.2 41.3
17:25 1017 30.03 847 25.01 19.4 66.9 42 6.4 43.5
17:30 1017 30.03 847 25.01 19.6 67.2 41 6.1 43
17:35 1017 30.03 847 25.01 19.5 67.1 40 5.5 42
17:40 1017 30.03 846 24.98 19.7 67.4 39 5.5 42
17:45 1017 30.03 846 24.98 20.2 68.3 34 4.2 39.5
17:50 1017 30.03 846 24.98 20.7 69.3 40 6.7 44
17:55 1017 30.03 846 24.98 20.2 68.4 40 6.2 43.2
18:00 1017 30.03 846 24.98 20 68 39 5.6 42.1
18:05 1017 30.03 846 24.98 20.1 68.1 37 5 40.9
18:10 1017 30.03 846 24.98 20.2 68.4 42 7 44.6
18:15 1017 30.03 846 24.98 20.1 68.2 40 6.2 43.2
18:20 1017 30.03 846 24.98 19.8 67.7 40 5.9 42.6
18:25 1017 30.03 846 24.98 19.7 67.5 39 5.6 42
18:30 1017 30.03 846 24.98 19.7 67.4 41 6.3 43.3
18:35 1017 30.03 846 24.98 19.7 67.4 40 5.8 42.5
18:40 1017 30.03 846 24.98 19.9 67.9 40 6 42.9
18:45 1017 30.03 846 24.98 19.9 67.9 39 5.8 42.5
18:50 1017 30.03 846 24.98 19.9 67.8 39 5.8 42.5
18:55 1017 30.03 846 24.98 20.1 68.2 36 4.6 40.3
19:00 1016 30 846 24.98 20.3 68.5 35 4.4 39.9
19:05 1016 30 846 24.98 20.2 68.3 33 3.8 38.8
19:10 1016 30 845 24.95 20.1 68.1 34 3.9 39.1
19:15 1016 30 845 24.95 20 67.9 35 4.2 39.6
19:20 1016 30 845 24.95 19.8 67.6 36 4.6 40.2
19:25 1016 30 845 24.95 19.6 67.2 37 4.5 40.1
19:30 1016 30 845 24.95 19.4 66.9 36 4.2 39.5
19:35 1016 30 845 24.95 19.3 66.7 37 4.3 39.7
19:40 1016 30 845 24.95 19.2 66.5 38 4.5 40.1
19:45 1016 30 845 24.95 19 66.2 39 4.8 40.6
19:50 1016 30 845 24.95 18.9 66 40 5.1 41.1
19:55 1016 30 845 24.95 18.9 66 40 5.2 41.3
20:00 1016 30 846 24.98 18.6 65.4 41 5.2 41.4
20:05 1016 30 846 24.98 18.5 65.3 41 5.2 41.3
20:10 1016 30 846 24.98 18.3 65 42 5.5 41.8
20:15 1016 30 846 24.98 18.1 64.6 42 5.2 41.4
20:20 1016 30 846 24.98 18.1 64.5 42 5.1 41.3
20:25 1016 30 846 24.98 17.9 64.3 42 5.1 41.1
20:30 1016 30 845 24.95 17.9 64.2 42 4.8 40.7
20:35 1016 30 845 24.95 17.8 64.1 42 4.7 40.5
20:40 1016 30 845 24.95 17.9 64.1 42 4.8 40.7
20:45 1016 30 846 24.98 17.7 63.8 42 4.8 40.7
20:50 1017 30.03 846 24.98 17.6 63.6 42 4.7 40.5
20:55 1017 30.03 846 24.98 17.5 63.6 42 4.7 40.4
21:00 1017 30.03 846 24.98 17.5 63.4 42 4.6 40.3
21:05 1017 30.03 846 24.98 17.4 63.4 42 4.5 40.1
21:10 1017 30.03 846 24.98 17.6 63.7 41 4.2 39.6
21:15 1017 30.03 846 24.98 17.6 63.8 42 4.8 40.6
21:20 1017 30.03 846 24.98 17.1 62.8 44 4.8 40.7
21:25 1017 30.03 846 24.98 16.8 62.3 44 4.7 40.5
21:30 1016 30 846 24.98 16.6 61.8 46 4.9 40.8
21:35 1017 30.03 846 24.98 16.1 61 47 4.9 40.9
21:40 1017 30.03 846 24.98 16.4 61.5 42 3.6 38.5
21:45 1017 30.03 846 24.98 17.2 63 42 4.4 40
21:50 1017 30.03 846 24.98 16.9 62.4 43 4.4 40
21:55 1017 30.03 846 24.98 16.7 62.1 46 5 41.1
22:00 1017 30.03 846 24.98 16.6 61.9 42 3.8 38.9
22:05 1017 30.03 846 24.98 17.1 62.9 41 4 39.1
22:10 1017 30.03 846 24.98 17.2 63 41 3.9 39
22:15 1017 30.03 846 24.98 17.2 63 40 3.7 38.7
22:20 1017 30.03 847 25.01 17.4 63.3 41 4.1 39.3
22:25 1018 30.06 847 25.01 17.3 63.2 43 4.6 40.3
22:30 1018 30.06 847 25.01 17.1 62.8 44 4.9 40.8
22:35 1018 30.06 847 25.01 16.7 62.1 46 5.1 41.2
22:40 1018 30.06 847 25.01 15.6 60.1 54 6.4 43.6
22:45 1018 30.06 847 25.01 13.3 56 59 5.6 42.1
22:50 1018 30.06 847 25.01 12.8 55.1 61 5.5 42
22:55 1018 30.06 847 25.01 12.2 54 63 5.5 41.9
23:00 1018 30.06 847 25.01 12.2 53.9 62 5.2 41.4
23:05 1018 30.06 848 25.04 12.2 54 63 5.3 41.6
23:10 1018 30.06 848 25.04 12.2 54 62 5.1 41.2
23:15 1019 30.09 848 25.04 12.6 54.7 61 5.4 41.7
23:20 1019 30.09 848 25.04 12.3 54.2 63 5.5 42
23:25 1019 30.09 848 25.04 12.2 54 62 5.1 41.2
23:30 1019 30.09 848 25.04 12.8 55 59 5 41
23:35 1019 30.09 848 25.04 13 55.5 59 5.3 41.5
23:40 1019 30.09 848 25.04 12.9 55.2 59 5.1 41.2
23:45 1019 30.09 848 25.04 12.8 55.1 61 5.6 42.1
23:50 1019 30.09 848 25.04 12.2 54 63 5.5 42
23:55 1019 30.09 848 25.04 12.1 53.8 63 5.4 41.7
24:00 1019 30.09 848 25.04 12.1 53.9 64 5.5 41.9